Time;durP1;ratioP1;P1;durP2;ratioP2;P2;SDS_P1;SDS_P2;PMS_P1;PMS_P2;Temp;Humidity;BMP_temperature;BMP_pressure;BME280_temperature;BME280_humidity;BME280_pressure;Samples;Min_cycle;Max_cycle;Signal;HPM_P1;HPM_P2
2022/09/04 00:00:17;;;;;;;7.72;2.20;;;;;;;10.55;100.00;95574.94;5030135;28;20042;-78
2022/09/04 00:03:17;;;;;;;3.55;1.85;;;;;;;10.56;100.00;95581.78;5026994;28;20045;-78
2022/09/04 00:05:49;;;;;;;4.28;2.20;;;;;;;10.45;100.00;95580.22;5023584;28;20037;-78
2022/09/04 00:08:48;;;;;;;3.58;1.98;;;;;;;10.56;100.00;95589.69;5025356;28;20042;-78
2022/09/04 00:11:33;;;;;;;3.83;2.20;;;;;;;10.54;100.00;95581.28;5026426;28;20084;-78
2022/09/04 00:14:05;;;;;;;;;;;;;;;10.54;100.00;95583.91;5029562;28;20256;-77
2022/09/04 00:16:43;;;;;;;2.92;1.77;;;;;;;10.50;100.00;95588.13;5027640;28;20370;-77
2022/09/04 00:19:19;;;;;;;2.97;1.85;;;;;;;10.58;100.00;95586.78;5027452;28;20041;-77
2022/09/04 00:22:09;;;;;;;2.55;1.90;;;;;;;10.53;100.00;95586.78;5022147;28;20113;-77
2022/09/04 00:24:44;;;;;;;3.38;2.10;;;;;;;10.49;100.00;95586.53;5025608;28;20073;-77
2022/09/04 00:27:16;;;;;;;3.80;2.00;;;;;;;10.55;100.00;95588.09;5021093;28;20100;-76
2022/09/04 00:29:48;;;;;;;3.15;1.80;;;;;;;10.41;100.00;95589.69;5028892;28;20468;-77
2022/09/04 00:32:24;;;;;;;3.55;2.15;;;;;;;10.54;100.00;95589.16;5022668;28;20046;-77
2022/09/04 00:34:57;;;;;;;3.60;2.03;;;;;;;10.52;100.00;95593.13;5028153;28;20052;-77
2022/09/04 00:37:28;;;;;;;5.80;1.95;;;;;;;10.57;100.00;95603.63;5020282;28;20046;-77
2022/09/04 00:40:03;;;;;;;3.40;1.80;;;;;;;10.58;100.00;95600.72;5027007;28;20045;-76
2022/09/04 00:42:53;;;;;;;2.95;2.00;;;;;;;10.46;100.00;95592.34;5023507;28;20038;-76
2022/09/04 00:45:42;;;;;;;3.45;1.80;;;;;;;10.31;100.00;95590.47;5023688;28;20038;-77
2022/09/04 00:48:55;;;;;;;2.90;1.95;;;;;;;10.46;100.00;95592.34;5023874;28;20045;-76
2022/09/04 00:51:24;;;;;;;2.58;1.75;;;;;;;10.40;100.00;95598.63;5018405;28;20062;-77
2022/09/04 00:53:50;;;;;;;3.35;1.90;;;;;;;10.47;100.00;95599.16;5028382;28;20056;-76
2022/09/04 00:56:21;;;;;;;4.75;2.17;;;;;;;10.48;100.00;95597.31;5025262;28;20037;-76
2022/09/04 00:59:09;;;;;;;5.07;2.00;;;;;;;10.44;100.00;95602.31;5016539;28;20034;-77
2022/09/04 01:01:34;;;;;;;3.45;2.00;;;;;;;10.56;100.00;95597.56;5027654;28;20042;-78
2022/09/04 01:04:00;;;;;;;4.20;2.03;;;;;;;10.56;100.00;95608.09;5030579;28;20048;-77
2022/09/04 01:06:38;;;;;;;5.30;2.05;;;;;;;10.58;100.00;95605.97;5028751;28;20067;-77
2022/09/04 01:09:31;;;;;;;3.75;1.75;;;;;;;10.64;100.00;95608.59;5019718;28;20046;-77
2022/09/04 01:12:25;;;;;;;3.05;1.77;;;;;;;10.53;100.00;95603.38;5016619;28;20037;-77
2022/09/04 01:14:58;;;;;;;2.33;1.88;;;;;;;10.50;100.00;95609.16;5023509;28;20041;-77
2022/09/04 01:17:41;;;;;;;2.83;1.80;;;;;;;10.58;100.00;95605.97;5014593;28;20110;-77
2022/09/04 01:20:09;;;;;;;2.92;1.73;;;;;;;10.61;100.00;95611.78;5029906;28;20045;-77
2022/09/04 01:22:53;;;;;;;2.70;1.80;;;;;;;10.77;100.00;95608.03;5026587;28;20046;-77
2022/09/04 01:25:49;;;;;;;4.63;1.90;;;;;;;10.76;100.00;95611.75;5022492;28;20041;-77
2022/09/04 01:28:31;;;;;;;4.72;2.00;;;;;;;10.71;100.00;95611.75;5015974;28;20037;-77
2022/09/04 01:31:21;;;;;;;5.97;2.10;;;;;;;10.71;100.00;95614.38;5027933;28;20491;-77
2022/09/04 01:33:58;;;;;;;2.85;1.80;;;;;;;10.67;100.00;95618.59;5042908;28;20055;-77
2022/09/04 01:36:35;;;;;;;2.80;1.95;;;;;;;10.79;100.00;95621.75;5020690;28;20029;-77
2022/09/04 01:39:01;;;;;;;3.47;2.00;;;;;;;10.84;100.00;95619.06;5028972;28;20047;-77
2022/09/04 01:41:33;;;;;;;2.08;1.52;;;;;;;10.91;100.00;95624.84;5026745;28;20053;-77
2022/09/04 01:44:02;;;;;;;3.30;2.10;;;;;;;10.91;100.00;95624.84;5026326;28;20067;-77
2022/09/04 01:46:28;;;;;;;5.63;2.00;;;;;;;11.03;100.00;95621.13;5031008;28;20045;-77
2022/09/04 01:49:09;;;;;;;6.55;1.80;;;;;;;11.03;100.00;95621.94;5034110;28;20514;-77
2022/09/04 01:51:56;;;;;;;3.40;1.77;;;;;;;11.00;100.00;95621.66;5024713;28;20038;-77
2022/09/04 01:54:53;;;;;;;7.03;2.00;;;;;;;11.11;100.00;95623.22;5029037;28;20049;-77
2022/09/04 01:57:46;;;;;;;2.78;1.90;;;;;;;11.04;100.00;95627.97;5033215;28;20112;-77
2022/09/04 02:00:14;;;;;;;3.75;2.00;;;;;;;11.23;100.00;95625.53;5029222;28;20041;-77
2022/09/04 02:03:18;;;;;;;2.92;1.98;;;;;;;11.17;100.00;95627.41;5031441;28;20483;-77
2022/09/04 02:06:13;;;;;;;3.17;1.88;;;;;;;11.20;100.00;95621.59;5032744;28;20044;-77
2022/09/04 02:08:51;;;;;;;3.53;2.03;;;;;;;11.16;100.00;95620.56;5028221;28;20029;-77
2022/09/04 02:11:20;;;;;;;2.95;2.10;;;;;;;11.26;100.00;95620.53;5031074;28;20091;-77
2022/09/04 02:14:20;;;;;;;6.45;2.00;;;;;;;11.29;100.00;95623.66;5029589;28;20049;-77
2022/09/04 02:17:17;;;;;;;5.45;1.98;;;;;;;11.16;100.00;95625.84;5032175;28;20524;-77
2022/09/04 02:20:07;;;;;;;3.47;2.10;;;;;;;11.14;100.00;95627.16;5024297;28;20060;-77
2022/09/04 02:22:49;;;;;;;4.85;2.15;;;;;;;11.18;100.00;95628.19;5016815;28;20645;-78
2022/09/04 02:25:23;;;;;;;3.67;1.95;;;;;;;11.17;100.00;95622.13;5031500;28;20037;-78
2022/09/04 02:28:05;;;;;;;;;;;;;;;11.15;100.00;95624.25;5031378;28;20045;-78
2022/09/04 02:30:40;;;;;;;4.00;1.98;;;;;;;11.11;100.00;95628.47;5028083;28;20402;-77
2022/09/04 02:33:34;;;;;;;2.90;1.90;;;;;;;11.00;100.00;95626.94;5031527;28;20426;-77
2022/09/04 02:36:11;;;;;;;2.13;1.73;;;;;;;11.12;100.00;95629.25;5021040;28;20632;-78
2022/09/04 02:39:02;;;;;;;6.25;2.10;;;;;;;11.06;100.00;95620.59;5023493;28;20088;-77
2022/09/04 02:41:39;;;;;;;2.58;1.70;;;;;;;11.08;100.00;95626.38;5031728;28;20033;-77
2022/09/04 02:44:14;;;;;;;4.82;2.00;;;;;;;11.13;100.00;95631.63;5031380;28;20041;-77
2022/09/04 02:47:02;;;;;;;;;;;;;;;11.06;100.00;95628.47;5032584;28;20044;-77
2022/09/04 02:49:47;;;;;;;4.90;1.90;;;;;;;11.03;100.00;95632.47;5027049;28;19924;-77
2022/09/04 02:52:36;;;;;;;3.00;2.10;;;;;;;11.04;100.00;95630.63;5031493;28;20474;-77
2022/09/04 02:55:43;;;;;;;3.33;2.00;;;;;;;10.99;100.00;95633.25;5032492;28;20045;-77
2022/09/04 02:58:16;;;;;;;2.95;1.83;;;;;;;11.07;100.00;95630.06;5025941;28;20423;-77
2022/09/04 03:00:54;;;;;;;2.95;1.90;;;;;;;10.98;100.00;95629.06;5028933;28;20483;-77
2022/09/04 03:03:28;;;;;;;3.13;1.85;;;;;;;11.00;100.00;95632.19;5031917;28;20124;-77
2022/09/04 03:06:05;;;;;;;4.18;2.20;;;;;;;11.09;100.00;95630.56;5030735;28;20052;-77
2022/09/04 03:08:40;;;;;;;4.78;1.85;;;;;;;11.01;100.00;95639.06;5025283;28;20069;-77
2022/09/04 03:11:16;;;;;;;3.90;1.98;;;;;;;10.97;100.00;95635.38;5019241;28;20042;-77
2022/09/04 03:14:10;;;;;;;6.03;1.70;;;;;;;11.02;100.00;95635.34;5030501;28;20042;-77
2022/09/04 03:16:45;;;;;;;6.07;2.10;;;;;;;10.92;100.00;95639.59;5031674;28;20415;-77
2022/09/04 03:19:34;;;;;;;2.78;1.88;;;;;;;10.86;100.00;95643.31;5029736;28;20499;-77
2022/09/04 03:22:15;;;;;;;2.28;1.80;;;;;;;10.85;100.00;95640.94;5030115;28;20099;-77
2022/09/04 03:25:03;;;;;;;2.88;1.90;;;;;;;10.79;100.00;95636.72;5022757;28;20049;-77
2022/09/04 03:27:33;;;;;;;2.38;1.77;;;;;;;10.85;100.00;95644.34;5028705;28;20061;-77
2022/09/04 03:30:09;;;;;;;5.22;2.00;;;;;;;10.88;100.00;95649.09;5027976;28;20050;-77
2022/09/04 03:32:43;;;;;;;3.42;1.90;;;;;;;10.88;100.00;95640.41;5022419;28;20046;-77
2022/09/04 03:35:30;;;;;;;2.67;1.80;;;;;;;10.75;100.00;95647.00;5026707;28;20041;-77
2022/09/04 03:37:56;;;;;;;3.65;1.80;;;;;;;10.62;100.00;95642.31;5029013;28;20095;-77
2022/09/04 03:40:44;;;;;;;3.88;1.70;;;;;;;10.53;100.00;95644.66;5031376;28;20045;-77
2022/09/04 03:43:44;;;;;;;5.25;1.55;;;;;;;10.50;100.00;95640.75;5024580;28;20758;-77
2022/09/04 03:46:34;;;;;;;2.47;1.70;;;;;;;10.68;100.00;95652.53;5025088;28;20129;-77
2022/09/04 03:49:12;;;;;;;2.67;1.83;;;;;;;10.56;100.00;95654.69;5029347;28;20046;-77
2022/09/04 03:51:49;;;;;;;2.83;1.80;;;;;;;10.48;100.00;95653.34;5031185;28;20041;-78
2022/09/04 03:54:37;;;;;;;6.03;2.10;;;;;;;10.51;100.00;95652.81;5031908;28;20052;-77
2022/09/04 03:57:14;;;;;;;5.82;1.80;;;;;;;10.56;100.00;95652.84;5023990;28;20179;-78
2022/09/04 03:59:55;;;;;;;2.92;1.98;;;;;;;10.53;100.00;95644.66;5019918;28;20119;-78
2022/09/04 04:02:47;;;;;;;2.85;1.85;;;;;;;10.66;100.00;95659.13;5023625;28;20073;-78
2022/09/04 04:05:41;;;;;;;3.08;1.92;;;;;;;10.63;100.00;95654.41;5021443;28;20411;-78
2022/09/04 04:08:22;;;;;;;2.50;1.63;;;;;;;10.57;100.00;95662.31;5013240;28;20459;-78
2022/09/04 04:11:23;;;;;;;2.80;1.88;;;;;;;10.50;100.00;95656.53;5025252;28;20049;-77
2022/09/04 04:14:29;;;;;;;2.83;1.88;;;;;;;10.53;100.00;95666.53;5021995;28;20038;-77
2022/09/04 04:17:18;;;;;;;5.32;2.28;;;;;;;10.46;100.00;95671.25;5017973;28;20045;-76
2022/09/04 04:19:54;;;;;;;6.20;2.00;;;;;;;10.41;100.00;95668.63;5025676;28;20415;-76
2022/09/04 04:22:44;;;;;;;3.63;2.05;;;;;;;10.45;100.00;95668.91;5029225;28;20041;-76
2022/09/04 04:25:36;;;;;;;3.67;1.77;;;;;;;10.39;100.00;95676.00;5028492;28;20069;-76
2022/09/04 04:28:29;;;;;;;3.58;2.42;;;;;;;10.36;100.00;95668.63;5027887;28;20041;-76
2022/09/04 04:31:18;;;;;;;2.40;1.75;;;;;;;10.35;100.00;95667.06;5024639;28;20045;-77
2022/09/04 04:33:54;;;;;;;6.25;2.08;;;;;;;10.49;100.00;95673.38;5027284;28;20811;-77
2022/09/04 04:36:35;;;;;;;4.15;1.98;;;;;;;10.52;100.00;95683.34;5027879;28;20111;-77
2022/09/04 04:39:08;;;;;;;3.08;2.00;;;;;;;10.39;100.00;95686.53;5023270;28;20045;-77
2022/09/04 04:42:03;;;;;;;3.92;2.25;;;;;;;10.45;100.00;95693.34;5026796;28;20116;-76
2022/09/04 04:48:06;;;;;;;4.30;2.20;;;;;;;10.42;100.00;95707.03;5016497;28;20477;-77
2022/09/04 04:50:58;;;;;;;4.10;2.28;;;;;;;10.53;100.00;95713.88;5025533;28;20806;-76
2022/09/04 04:53:56;;;;;;;3.78;2.20;;;;;;;10.61;100.00;95719.69;5028400;28;20105;-76
2022/09/04 04:56:36;;;;;;;3.38;2.10;;;;;;;10.61;100.00;95714.41;5020654;28;20045;-76
2022/09/04 04:59:19;;;;;;;4.50;2.13;;;;;;;10.71;100.00;95719.66;5028214;28;20121;-77
2022/09/04 05:01:51;;;;;;;4.85;2.38;;;;;;;10.62;100.00;95716.00;5028202;28;20034;-77
2022/09/04 05:04:28;;;;;;;4.13;2.30;;;;;;;10.61;100.00;95730.19;5026879;28;20046;-76
2022/09/04 05:07:36;;;;;;;3.25;2.10;;;;;;;10.67;100.00;95729.13;5028977;28;20051;-76
2022/09/04 05:10:18;;;;;;;3.10;2.15;;;;;;;10.77;100.00;95723.88;5024648;28;20064;-76
2022/09/04 05:13:00;;;;;;;3.65;2.42;;;;;;;10.71;100.00;95735.47;5029177;28;20111;-77
2022/09/04 05:15:47;;;;;;;3.58;2.10;;;;;;;10.72;100.00;95737.81;5029554;28;20496;-76
2022/09/04 05:18:24;;;;;;;6.35;2.45;;;;;;;10.76;100.00;95743.38;5028089;28;20045;-77
2022/09/04 05:21:13;;;;;;;4.75;2.38;;;;;;;10.61;100.00;95746.00;5022172;28;20045;-77
2022/09/04 05:23:59;;;;;;;3.70;2.20;;;;;;;10.68;100.00;95743.88;5029192;28;20068;-77
2022/09/04 05:26:42;;;;;;;3.60;2.10;;;;;;;10.77;100.00;95744.91;5027613;28;20077;-77
2022/09/04 05:29:55;;;;;;;3.42;2.28;;;;;;;10.82;100.00;95747.56;5032316;28;20038;-77
2022/09/04 05:32:34;;;;;;;3.53;2.22;;;;;;;10.90;100.00;95764.66;5021533;28;20085;-77
2022/09/04 05:35:14;;;;;;;3.75;2.25;;;;;;;11.02;100.00;95772.28;5029279;28;20132;-77
2022/09/04 05:37:52;;;;;;;3.75;2.30;;;;;;;11.02;100.00;95767.81;5024373;28;20140;-77
2022/09/04 05:40:49;;;;;;;3.03;2.00;;;;;;;11.02;100.00;95772.28;5027323;28;20037;-77
2022/09/04 05:43:41;;;;;;;5.35;2.40;;;;;;;11.07;100.00;95770.44;5019666;28;20585;-77
2022/09/04 05:46:24;;;;;;;7.55;2.60;;;;;;;11.19;100.00;95775.44;5020283;28;20080;-77
2022/09/04 05:49:02;;;;;;;5.45;2.10;;;;;;;11.33;100.00;95766.97;5032671;28;20073;-77
2022/09/04 05:51:31;;;;;;;2.85;2.03;;;;;;;11.30;100.00;95772.78;5027990;28;20525;-77
2022/09/04 05:54:11;;;;;;;4.22;2.35;;;;;;;11.30;100.00;95772.78;5026663;28;20542;-77
2022/09/04 05:56:59;;;;;;;3.80;2.50;;;;;;;11.30;100.00;95776.19;5028156;28;20049;-77
2022/09/04 05:59:24;;;;;;;3.72;2.42;;;;;;;11.34;100.00;95764.06;5029472;28;20045;-77
2022/09/04 06:02:20;;;;;;;4.05;2.58;;;;;;;11.40;100.00;95772.75;5032240;28;20052;-77
2022/09/04 06:05:12;;;;;;;4.78;2.72;;;;;;;11.83;100.00;95791.59;5021937;28;20041;-77
2022/09/04 06:07:54;;;;;;;5.97;2.70;;;;;;;12.13;100.00;95788.03;5028949;28;20496;-77
2022/09/04 06:10:43;;;;;;;3.75;2.55;;;;;;;12.30;100.00;95795.63;5028404;28;20046;-77
2022/09/04 06:13:09;;;;;;;4.15;2.50;;;;;;;12.55;100.00;95791.22;5025238;28;20502;-77
2022/09/04 06:15:47;;;;;;;6.00;2.42;;;;;;;12.67;100.00;95787.47;5025709;28;20050;-77
2022/09/04 06:18:45;;;;;;;7.32;2.50;;;;;;;12.80;100.00;95792.09;5030414;28;20049;-77
2022/09/04 06:21:33;;;;;;;4.00;2.40;;;;;;;12.83;100.00;95792.34;5014060;28;20061;-77
2022/09/04 06:24:36;;;;;;;4.82;2.70;;;;;;;12.83;100.00;95796.84;5031388;28;20037;-77
2022/09/04 06:27:13;;;;;;;5.28;2.50;;;;;;;13.12;100.00;95811.94;5020990;28;20295;-78
2022/09/04 06:30:02;;;;;;;3.70;2.33;;;;;;;13.36;100.00;95805.94;5024673;28;20046;-81
2022/09/04 06:32:57;;;;;;;3.67;2.50;;;;;;;13.51;100.00;95816.34;5029649;28;20065;-78
2022/09/04 06:35:47;;;;;;;3.50;2.43;;;;;;;13.68;100.00;95811.41;5020588;28;20057;-77
2022/09/04 06:38:27;;;;;;;5.53;2.53;;;;;;;13.89;100.00;95803.22;5031262;28;20051;-79
2022/09/04 06:41:27;;;;;;;4.60;2.60;;;;;;;13.89;100.00;95815.69;5022537;28;20046;-77
2022/09/04 06:44:01;;;;;;;9.00;3.33;;;;;;;14.10;100.00;95805.66;5037140;28;20084;-78
2022/09/04 06:46:38;;;;;;;;;;;;;;;14.16;100.00;95815.09;5025099;28;20034;-77
2022/09/04 06:49:21;;;;;;;6.05;2.47;;;;;;;14.04;100.00;95808.34;5029138;28;20624;-78
2022/09/04 06:52:00;;;;;;;3.88;2.55;;;;;;;13.98;100.00;95814.78;5027910;28;20044;-77
2022/09/04 06:54:47;;;;;;;3.90;2.30;;;;;;;14.06;100.00;95815.22;5030716;28;20088;-78
2022/09/04 06:58:01;;;;;;;3.92;2.30;;;;;;;14.34;100.00;95822.25;5028742;28;20041;-81
2022/09/04 07:00:33;;;;;;;3.45;2.38;;;;;;;14.48;100.00;95826.84;5023568;28;20100;-84
2022/09/04 07:03:22;;;;;;;6.07;2.30;;;;;;;14.40;100.00;95827.50;5024823;28;20046;-80
2022/09/04 07:06:12;;;;;;;3.85;2.13;;;;;;;14.54;100.00;95821.19;5032543;28;20129;-84
2022/09/04 07:08:56;;;;;;;3.63;2.10;;;;;;;14.82;100.00;95836.47;5021098;28;20042;-80
2022/09/04 07:11:43;;;;;;;3.47;2.13;;;;;;;14.97;100.00;95828.28;5029523;28;20448;-80
2022/09/04 07:14:37;;;;;;;3.45;2.40;;;;;;;14.91;100.00;95824.13;5025833;28;20095;-85
2022/09/04 07:17:33;;;;;;;7.03;2.55;;;;;;;14.99;100.00;95828.78;5026272;28;20045;-79
2022/09/04 07:20:34;;;;;;;8.25;2.33;;;;;;;15.06;100.00;95836.34;5030448;28;20041;-81
2022/09/04 07:23:22;;;;;;;3.50;2.28;;;;;;;15.33;100.00;95840.94;5028409;28;20046;-79
2022/09/04 07:26:12;;;;;;;3.00;2.05;;;;;;;15.42;100.00;95839.19;5024043;28;20111;-79
2022/09/04 07:29:03;;;;;;;6.47;2.35;;;;;;;15.39;100.00;95834.47;5040564;28;20042;-79
2022/09/04 07:31:45;;;;;;;4.43;2.00;;;;;;;15.50;100.00;95840.41;5015934;28;20034;-79
2022/09/04 07:34:30;;;;;;;3.78;2.40;;;;;;;15.63;100.00;95849.47;5021790;28;20041;-79
2022/09/04 07:37:00;;;;;;;;;;;;;;;15.80;100.00;95853.41;5031126;28;20088;-79
2022/09/04 07:39:42;;;;;;;2.92;1.98;;;;;;;15.84;100.00;95843.81;5018994;28;19928;-78
2022/09/04 07:42:27;;;;;;;3.35;2.25;;;;;;;15.69;100.00;95850.94;5025986;28;20045;-78
2022/09/04 07:45:04;;;;;;;3.13;2.05;;;;;;;15.97;100.00;95852.84;5021209;28;20045;-79
2022/09/04 07:47:41;;;;;;;3.03;2.05;;;;;;;16.10;100.00;95858.16;5026771;28;20499;-81
2022/09/04 07:50:40;;;;;;;3.72;2.20;;;;;;;16.21;100.00;95858.72;5020012;28;21033;-79
2022/09/04 07:53:26;;;;;;;3.88;2.40;;;;;;;15.82;100.00;95856.59;5019936;28;20049;-78
2022/09/04 07:56:09;;;;;;;8.43;2.33;;;;;;;15.70;100.00;95860.47;5028117;28;20088;-80
2022/09/04 07:58:44;;;;;;;3.63;2.40;;;;;;;16.23;100.00;95877.00;5027566;28;20049;-78
2022/09/04 08:01:22;;;;;;;3.50;2.38;;;;;;;16.59;100.00;95873.63;5023270;28;20065;-78
2022/09/04 08:04:12;;;;;;;3.38;2.28;;;;;;;16.60;100.00;95880.50;5029688;28;20530;-77
2022/09/04 08:06:48;;;;;;;3.58;2.53;;;;;;;16.57;100.00;95881.13;5027046;28;20682;-79
2022/09/04 08:09:35;;;;;;;2.38;2.03;;;;;;;16.47;100.00;95891.97;5022741;28;20038;-78
2022/09/04 08:12:24;;;;;;;3.50;2.45;;;;;;;16.60;100.00;95885.81;5025178;28;20037;-78
2022/09/04 08:14:54;;;;;;;7.07;2.50;;;;;;;16.89;100.00;95892.69;5021200;28;20045;-80
2022/09/04 08:17:32;;;;;;;3.03;2.30;;;;;;;17.01;100.00;95887.63;5026231;28;20033;-79
2022/09/04 08:20:37;;;;;;;3.83;2.35;;;;;;;16.97;100.00;95894.63;5027426;28;20037;-79
2022/09/04 08:23:13;;;;;;;;;;;;;;;17.34;100.00;95895.38;5028626;28;20060;-78
2022/09/04 08:25:59;;;;;;;6.32;2.80;;;;;;;16.88;100.00;95896.41;5025055;28;19929;-79
2022/09/04 08:28:46;;;;;;;4.30;2.55;;;;;;;17.16;100.00;95885.69;5025493;28;20815;-78
2022/09/04 08:31:34;;;;;;;5.45;2.60;;;;;;;16.83;100.00;95888.53;5028819;28;20420;-78
2022/09/04 08:34:31;;;;;;;4.40;2.80;;;;;;;17.46;100.00;95887.59;5017665;28;20449;-80
2022/09/04 08:37:20;;;;;;;4.47;2.88;;;;;;;17.00;100.00;95888.69;5025696;28;20103;-78
2022/09/04 08:40:12;;;;;;;4.20;2.72;;;;;;;17.12;100.00;95902.25;5030254;28;20041;-80
2022/09/04 08:43:02;;;;;;;5.15;2.97;;;;;;;17.21;100.00;95898.84;5029992;28;20042;-77
2022/09/04 08:45:53;;;;;;;4.18;2.80;;;;;;;17.38;100.00;95906.19;5022822;28;20076;-79
2022/09/04 08:48:54;;;;;;;4.47;2.65;;;;;;;17.82;100.00;95901.91;5026261;28;20041;-80
2022/09/04 08:51:48;;;;;;;4.68;2.90;;;;;;;17.90;100.00;95908.34;5026037;28;20041;-80
2022/09/04 08:54:42;;;;;;;4.30;2.55;;;;;;;17.83;100.00;95904.25;5024692;28;20041;-80
2022/09/04 08:57:57;;;;;;;3.67;2.50;;;;;;;18.18;100.00;95909.75;5021719;28;20099;-80
2022/09/04 09:00:55;;;;;;;4.93;2.67;;;;;;;18.46;100.00;95904.19;5023878;28;20038;-81
2022/09/04 09:03:41;;;;;;;5.10;2.35;;;;;;;18.53;100.00;95915.19;5027504;28;20076;-78
2022/09/04 09:06:14;;;;;;;4.47;2.85;;;;;;;18.52;100.00;95908.28;5024955;28;20515;-76
2022/09/04 09:09:10;;;;;;;4.47;2.90;;;;;;;18.27;100.00;95907.09;5023820;28;20040;-77
2022/09/04 09:11:59;;;;;;;6.03;3.03;;;;;;;18.16;100.00;95911.16;5027122;28;20034;-77
2022/09/04 09:15:05;;;;;;;4.55;2.70;;;;;;;18.43;100.00;95904.81;5028697;28;20045;-81
2022/09/04 09:17:38;;;;;;;4.30;2.22;;;;;;;18.65;100.00;95913.81;5030720;28;20134;-78
2022/09/04 09:20:29;;;;;;;4.72;2.42;;;;;;;18.89;100.00;95913.38;5025935;28;20056;-79
2022/09/04 09:23:15;;;;;;;3.72;2.40;;;;;;;18.96;100.00;95907.56;5026334;28;20572;-79
2022/09/04 09:25:49;;;;;;;3.70;2.35;;;;;;;18.96;100.00;95905.69;5027983;28;20049;-78
2022/09/04 09:28:17;;;;;;;;;;;;;;;19.06;100.00;95903.81;5028570;28;20094;-79
2022/09/04 09:31:16;;;;;;;3.47;2.15;;;;;;;19.26;100.00;95902.41;5029563;28;19933;-78
2022/09/04 09:34:29;;;;;;;4.43;2.20;;;;;;;19.04;100.00;95906.81;5023462;28;20037;-78
2022/09/04 09:37:25;;;;;;;4.15;2.30;;;;;;;18.72;100.00;95898.13;5009332;28;20603;-77
2022/09/04 09:40:10;;;;;;;9.88;4.03;;;;;;;19.09;100.00;95901.28;5034371;28;20047;-78
2022/09/04 09:43:00;;;;;;;3.03;2.22;;;;;;;18.94;100.00;95901.78;5029364;28;20048;-79
2022/09/04 09:46:00;;;;;;;4.40;2.60;;;;;;;18.98;100.00;95897.41;5030336;28;20038;-78
2022/09/04 09:48:52;;;;;;;4.93;2.88;;;;;;;19.02;100.00;95898.31;5022561;28;20048;-78
2022/09/04 09:51:56;;;;;;;3.50;2.40;;;;;;;18.90;100.00;95895.50;5021666;28;20049;-78
2022/09/04 09:54:36;;;;;;;3.63;2.10;;;;;;;18.82;100.00;95883.69;5027479;28;20095;-79
2022/09/04 09:57:23;;;;;;;4.82;2.50;;;;;;;18.85;100.00;95894.53;5028746;28;20068;-78
2022/09/04 10:00:09;;;;;;;2.83;2.05;;;;;;;20.04;100.00;95882.75;5020490;28;20042;-77
2022/09/04 10:02:57;;;;;;;3.75;2.13;;;;;;;20.42;100.00;95892.63;5029128;28;20048;-77
2022/09/04 10:05:36;;;;;;;4.82;2.00;;;;;;;20.14;100.00;95887.75;5023492;28;20044;-77
2022/09/04 10:08:23;;;;;;;2.75;2.00;;;;;;;20.85;100.00;95883.56;5029073;28;20049;-78
2022/09/04 10:11:09;;;;;;;2.97;2.20;;;;;;;21.15;100.00;95891.53;5033073;28;20436;-78
2022/09/04 10:14:03;;;;;;;3.08;1.95;;;;;;;21.62;94.35;95896.63;5026650;28;20033;-78
2022/09/04 10:16:34;;;;;;;4.77;2.47;;;;;;;21.68;100.00;95896.41;5029601;28;20045;-82
2022/09/04 10:19:17;;;;;;;4.85;2.28;;;;;;;22.42;94.34;95886.56;5028969;28;20049;-83
2022/09/04 10:22:20;;;;;;;2.88;1.88;;;;;;;22.93;96.57;95891.50;5028581;28;20049;-81
2022/09/04 10:25:27;;;;;;;3.45;1.90;;;;;;;22.74;87.06;95885.94;5031997;28;20569;-78
2022/09/04 10:28:27;;;;;;;3.15;2.20;;;;;;;22.91;89.74;95891.06;5026556;28;20594;-78
2022/09/04 10:31:30;;;;;;;4.57;2.22;;;;;;;22.89;86.82;95887.94;5031846;28;20522;-78
2022/09/04 10:34:35;;;;;;;3.45;2.08;;;;;;;23.09;87.36;95896.16;5032416;28;20102;-79
2022/09/04 10:37:19;;;;;;;3.53;2.40;;;;;;;23.60;85.98;95890.25;5028150;28;20041;-78
2022/09/04 10:43:10;;;;;;;4.15;2.10;;;;;;;23.44;78.35;95890.22;5019704;28;20038;-76
2022/09/04 10:45:43;;;;;;;4.95;2.58;;;;;;;23.50;96.25;95886.97;5026073;28;20388;-79
2022/09/04 10:48:29;;;;;;;3.40;2.10;;;;;;;25.05;76.21;95893.25;5026995;28;20037;-76
2022/09/04 10:50:58;;;;;;;3.17;1.88;;;;;;;25.33;74.26;95886.91;5019449;28;20069;-77
2022/09/04 10:53:50;;;;;;;2.35;1.80;;;;;;;25.08;67.34;95887.19;5024374;28;20040;-77
2022/09/04 10:56:29;;;;;;;3.88;2.10;;;;;;;25.49;68.04;95888.75;5021116;28;20041;-76
2022/09/04 10:59:09;;;;;;;4.57;2.30;;;;;;;25.15;81.71;95883.06;5027355;28;20041;-76
2022/09/04 11:02:13;;;;;;;6.38;2.42;;;;;;;23.10;75.79;95884.28;5026707;28;20103;-75
2022/09/04 11:05:07;;;;;;;3.97;2.30;;;;;;;23.15;77.27;95887.53;5018361;28;20500;-81
2022/09/04 11:08:00;;;;;;;4.20;2.20;;;;;;;25.02;69.70;95888.59;5024916;28;20045;-78
2022/09/04 11:10:39;;;;;;;3.05;2.10;;;;;;;25.21;66.78;95889.72;5028078;28;20454;-76
2022/09/04 11:13:44;;;;;;;4.32;2.30;;;;;;;23.93;81.64;95884.59;5025553;28;20075;-76
2022/09/04 11:16:30;;;;;;;5.75;2.50;;;;;;;23.51;74.78;95887.72;5026743;28;20072;-76
2022/09/04 11:19:19;;;;;;;5.03;2.30;;;;;;;23.11;74.78;95888.56;5020812;28;20112;-76
2022/09/04 11:22:00;;;;;;;5.00;2.17;;;;;;;23.79;74.36;95889.59;5029931;28;20041;-76
2022/09/04 11:24:46;;;;;;;5.18;2.45;;;;;;;24.33;78.31;95886.31;5030581;28;20073;-76
2022/09/04 11:27:29;;;;;;;5.75;2.33;;;;;;;23.37;78.46;95884.66;5030406;28;20542;-76
2022/09/04 11:30:10;;;;;;;4.55;2.40;;;;;;;23.76;72.70;95882.22;5028466;28;20053;-76
2022/09/04 11:33:14;;;;;;;4.10;2.47;;;;;;;23.83;89.78;95885.88;5022528;28;20044;-76
2022/09/04 11:35:55;;;;;;;5.33;2.47;;;;;;;23.02;76.12;95881.41;5030382;28;20056;-76
2022/09/04 11:38:42;;;;;;;4.25;2.45;;;;;;;22.95;83.74;95889.25;5028818;28;20045;-76
2022/09/04 11:41:31;;;;;;;3.97;2.20;;;;;;;23.10;86.14;95881.59;5019000;28;20095;-76
2022/09/04 11:44:27;;;;;;;6.25;2.40;;;;;;;22.64;90.66;95890.69;5013732;28;20045;-76
2022/09/04 11:47:30;;;;;;;4.85;2.78;;;;;;;23.02;79.44;95881.41;5029004;28;20091;-76
2022/09/04 11:50:07;;;;;;;4.03;2.70;;;;;;;22.62;83.03;95884.84;5029477;28;20048;-76
2022/09/04 11:53:10;;;;;;;6.55;2.80;;;;;;;22.61;82.31;95888.69;5015026;28;20061;-76
2022/09/04 11:56:05;;;;;;;3.40;2.33;;;;;;;23.72;79.22;95890.19;5029996;28;20061;-76
2022/09/04 11:58:57;;;;;;;3.50;2.47;;;;;;;23.28;80.96;95888.28;5029698;28;20778;-76
2022/09/04 12:01:31;;;;;;;5.57;2.58;;;;;;;22.63;76.89;95891.78;5027645;28;20111;-76
2022/09/04 12:04:23;;;;;;;3.85;2.53;;;;;;;22.05;85.27;95899.16;5028686;28;20049;-76
2022/09/04 12:07:19;;;;;;;3.53;2.45;;;;;;;21.76;88.19;95898.97;5029727;28;20061;-76
2022/09/04 12:10:09;;;;;;;5.72;2.95;;;;;;;24.26;92.60;95894.22;5025371;28;20045;-76
2022/09/04 12:13:26;;;;;;;5.03;2.28;;;;;;;26.04;71.48;95897.44;5024969;28;20447;-79
2022/09/04 12:16:20;;;;;;;3.03;2.20;;;;;;;26.70;64.48;95881.09;5008880;28;20042;-79
2022/09/04 12:19:13;;;;;;;6.15;2.28;;;;;;;26.53;53.67;95889.69;5008977;28;20046;-79
2022/09/04 12:21:50;;;;;;;4.57;2.42;;;;;;;26.98;63.23;95882.63;5027592;28;20057;-79
2022/09/04 12:24:42;;;;;;;9.40;2.63;;;;;;;28.14;52.08;95879.19;5031172;28;20096;-79
2022/09/04 12:27:26;;;;;;;3.90;2.50;;;;;;;28.09;54.82;95877.59;5019834;28;20049;-79
2022/09/04 12:30:18;;;;;;;4.00;2.55;;;;;;;28.03;58.78;95879.13;5019917;28;20037;-79
2022/09/04 12:33:01;;;;;;;4.75;2.58;;;;;;;27.74;52.45;95873.44;5032365;28;20113;-79
2022/09/04 12:35:53;;;;;;;3.10;2.30;;;;;;;28.43;46.93;95880.19;5019750;28;20045;-79
2022/09/04 12:38:45;;;;;;;6.35;2.58;;;;;;;28.44;51.64;95876.31;5030936;28;20045;-79
2022/09/04 12:41:18;;;;;;;3.70;2.50;;;;;;;28.20;51.15;95882.31;5029531;28;20041;-79
2022/09/04 12:44:10;;;;;;;3.80;2.30;;;;;;;28.94;48.70;95880.50;5030534;28;20038;-79
2022/09/04 12:46:49;;;;;;;4.70;2.33;;;;;;;28.69;50.20;95886.53;5030341;28;20042;-77
2022/09/04 12:49:57;;;;;;;8.32;2.63;;;;;;;28.82;47.12;95879.66;5027146;28;20041;-76
2022/09/04 12:53:01;;;;;;;4.43;2.67;;;;;;;29.21;46.48;95878.28;4998914;28;20049;-77
2022/09/04 12:55:33;;;;;;;6.97;2.47;;;;;;;28.91;43.94;95870.41;5028244;28;20053;-78
2022/09/04 12:58:20;;;;;;;4.88;2.70;;;;;;;29.53;45.69;95878.38;5028217;28;20407;-78
2022/09/04 13:00:51;;;;;;;4.63;2.90;;;;;;;29.43;44.70;95879.13;5025861;28;20041;-79